This is the latest recevied weather packets stored in our database for station/object ENMS. If no packets are shown the sender has not sent any weather packets the latest 10 day(s).
| Time | Temp. | Humidity | Pressure | Rain* | Wind** | Luminosity | Snow |
|---|---|---|---|---|---|---|---|
| 1787997787 | 15° C | 72% | 1003 hPa | - | - | - | - |
| 1787995987 | 15.56° C | 67% | 1003 hPa | - | - | - | - |
| 1787994187 | 16.67° C | 59% | 1004 hPa | - | - | - | - |
| 1787992387 | 15.56° C | 67% | 1004 hPa | - | - | - | - |
| 1787990587 | 13.89° C | 82% | 1005 hPa | - | - | - | - |
| 1787986987 | 13.89° C | 87% | 1005 hPa | - | - | - | - |
| 1787985188 | 13.89° C | 87% | 1005 hPa | - | - | - | - |
| 1787983388 | 12.78° C | 87% | 1006 hPa | - | - | - | - |
| 1787981588 | 12.78° C | 87% | 1007 hPa | - | - | - | - |
| 1787979786 | 12.78° C | 87% | 1007 hPa | - | - | - | - |
| 1787976187 | 13.89° C | 82% | 1008 hPa | - | - | - | - |
| 1787974386 | 15° C | 72% | 1008 hPa | - | - | - | - |
| 1787972586 | 15° C | 72% | 1008 hPa | - | - | - | - |
| 1787970786 | 15.56° C | 67% | 1009 hPa | - | - | - | - |
| 1787968987 | 15° C | 67% | 1009 hPa | - | - | - | - |
| 1787967186 | 15.56° C | 63% | 1009 hPa | - | - | - | - |
| 1787963586 | 15.56° C | 67% | 1010 hPa | - | - | - | - |
| 1787961786 | 15.56° C | 67% | 1010 hPa | - | - | - | - |
| 1787959986 | 16.67° C | 63% | 1010 hPa | - | - | - | - |
| 1787958186 | 15.56° C | 67% | 1011 hPa | - | - | - | - |
| 1787956386 | 13.89° C | 76% | 1011 hPa | - | - | - | - |
| 1787954586 | 13.89° C | 76% | 1011 hPa | - | - | - | - |
| 1787952786 | 13.89° C | 76% | 1012 hPa | - | - | - | - |
| 1787950986 | 13.89° C | 76% | 1012 hPa | - | - | - | - |
| 1787949186 | 15° C | 72% | 1012 hPa | - | - | - | - |
* Rain since midnight (hover to see other rain measurements)
** Current wind speed in m/s (hover to see current wind gust speed)